sensor_id;sensor_type;location;lat;lon;timestamp;pressure;altitude;pressure_sealevel;temperature;humidity
52343;BME280;38277;51.972;4.624;2023-02-28T00:04:42;103390.0;;;2.4;71.0
52343;BME280;38277;51.972;4.624;2023-02-28T00:10:44;103390.0;;;2.3;71.0
52343;BME280;38277;51.972;4.624;2023-02-28T00:22:50;103400.0;;;2.3;71.0
52343;BME280;38277;51.972;4.624;2023-02-28T00:28:51;103400.0;;;2.4;71.5
52343;BME280;38277;51.972;4.624;2023-02-28T00:37:53;103410.0;;;2.7;72.0
52343;BME280;38277;51.972;4.624;2023-02-28T00:40:54;103410.0;;;2.9;72.0
52343;BME280;38277;51.972;4.624;2023-02-28T00:49:57;103400.0;;;3.2;72.0
52343;BME280;38277;51.972;4.624;2023-02-28T01:02:01;103380.0;;;3.4;72.0
52343;BME280;38277;51.972;4.624;2023-02-28T01:11:09;103390.0;;;3.5;72.0
52343;BME280;38277;51.972;4.624;2023-02-28T01:17:07;103410.0;;;3.7;72.0
52343;BME280;38277;51.972;4.624;2023-02-28T01:26:12;103390.0;;;3.8;72.0
52343;BME280;38277;51.972;4.624;2023-02-28T01:35:13;103390.0;;;3.9;72.0
52343;BME280;38277;51.972;4.624;2023-02-28T01:45:06;103400.0;;;4.1;72.0
52343;BME280;38277;51.972;4.624;2023-02-28T02:02:26;103370.0;;;4.3;72.0
52343;BME280;38277;51.972;4.624;2023-02-28T02:11:26;103370.0;;;4.3;72.0
52343;BME280;38277;51.972;4.624;2023-02-28T02:26:05;103360.0;;;4.4;71.5
52343;BME280;38277;51.972;4.624;2023-02-28T02:34:47;103350.0;;;4.4;72.0
52343;BME280;38277;51.972;4.624;2023-02-28T02:42:47;103350.0;;;4.5;72.0
52343;BME280;38277;51.972;4.624;2023-02-28T02:47:50;103340.0;;;4.5;72.0
52343;BME280;38277;51.972;4.624;2023-02-28T02:59:42;103350.0;;;4.6;72.0
52343;BME280;38277;51.972;4.624;2023-02-28T03:05:50;103350.0;;;4.6;72.5
52343;BME280;38277;51.972;4.624;2023-02-28T03:15:19;103360.0;;;4.7;72.5
52343;BME280;38277;51.972;4.624;2023-02-28T03:25:18;103370.0;;;4.7;72.5
52343;BME280;38277;51.972;4.624;2023-02-28T03:36:04;103370.0;;;4.8;72.5
52343;BME280;38277;51.972;4.624;2023-02-28T03:41:59;103360.0;;;4.7;73.0
52343;BME280;38277;51.972;4.624;2023-02-28T03:51:03;103360.0;;;4.7;73.0
52343;BME280;38277;51.972;4.624;2023-02-28T04:00:07;103360.0;;;4.8;73.0
52343;BME280;38277;51.972;4.624;2023-02-28T04:12:08;103350.0;;;4.8;73.0
52343;BME280;38277;51.972;4.624;2023-02-28T04:18:09;103350.0;;;4.9;73.0
52343;BME280;38277;51.972;4.624;2023-02-28T04:39:17;103350.0;;;5.0;73.0
52343;BME280;38277;51.972;4.624;2023-02-28T04:48:20;103360.0;;;5.0;73.0
52343;BME280;38277;51.972;4.624;2023-02-28T04:57:23;103370.0;;;5.0;73.0
52343;BME280;38277;51.972;4.624;2023-02-28T05:03:25;103380.0;;;5.0;72.5
52343;BME280;38277;51.972;4.624;2023-02-28T05:12:28;103360.0;;;5.0;72.0
52343;BME280;38277;51.972;4.624;2023-02-28T05:24:32;103370.0;;;5.0;71.5
52343;BME280;38277;51.972;4.624;2023-02-28T05:30:34;103380.0;;;5.1;71.5
52343;BME280;38277;51.972;4.624;2023-02-28T05:39:38;103380.0;;;5.1;71.5
52343;BME280;38277;51.972;4.624;2023-02-28T05:48:42;103380.0;;;5.1;71.5
52343;BME280;38277;51.972;4.624;2023-02-28T06:00:45;103380.0;;;5.0;72.0
52343;BME280;38277;51.972;4.624;2023-02-28T06:06:48;103380.0;;;5.0;72.0
52343;BME280;38277;51.972;4.624;2023-02-28T06:18:51;103380.0;;;4.9;72.0
52343;BME280;38277;51.972;4.624;2023-02-28T06:24:53;103370.0;;;4.8;71.0
52343;BME280;38277;51.972;4.624;2023-02-28T06:36:59;103380.0;;;4.6;69.5
52343;BME280;38277;51.972;4.624;2023-02-28T06:42:59;103380.0;;;4.4;69.5
52343;BME280;38277;51.972;4.624;2023-02-28T06:52:03;103390.0;;;4.2;71.0
52343;BME280;38277;51.972;4.624;2023-02-28T07:01:08;103410.0;;;4.0;72.0
52343;BME280;38277;51.972;4.624;2023-02-28T07:13:10;103420.0;;;3.9;73.0
52343;BME280;38277;51.972;4.624;2023-02-28T07:20:46;103420.0;;;3.7;74.5
52343;BME280;38277;51.972;4.624;2023-02-28T07:32:51;103420.0;;;3.7;75.0
52343;BME280;38277;51.972;4.624;2023-02-28T07:48:01;103430.0;;;3.6;76.0
52343;BME280;38277;51.972;4.624;2023-02-28T07:57:04;103430.0;;;3.6;76.5
52343;BME280;38277;51.972;4.624;2023-02-28T08:12:10;103420.0;;;3.7;76.5
52343;BME280;38277;51.972;4.624;2023-02-28T08:15:10;103420.0;;;3.7;77.0
52343;BME280;38277;51.972;4.624;2023-02-28T08:27:14;103430.0;;;3.7;77.5
52343;BME280;38277;51.972;4.624;2023-02-28T08:33:17;103420.0;;;3.8;77.5
52343;BME280;38277;51.972;4.624;2023-02-28T08:42:28;103430.0;;;4.0;77.5
52343;BME280;38277;51.972;4.624;2023-02-28T08:51:23;103410.0;;;4.1;77.5
52343;BME280;38277;51.972;4.624;2023-02-28T09:00:26;103420.0;;;4.2;78.0
52343;BME280;38277;51.972;4.624;2023-02-28T09:09:29;103410.0;;;4.3;78.0
52343;BME280;38277;51.972;4.624;2023-02-28T09:18:34;103420.0;;;4.6;78.0
52343;BME280;38277;51.972;4.624;2023-02-28T09:27:35;103420.0;;;4.9;77.5
52343;BME280;38277;51.972;4.624;2023-02-28T09:39:39;103430.0;;;5.1;77.5
52343;BME280;38277;51.972;4.624;2023-02-28T09:54:45;103440.0;;;5.6;76.5
52343;BME280;38277;51.972;4.624;2023-02-28T10:04:43;103440.0;;;5.6;75.5
52343;BME280;38277;51.972;4.624;2023-02-28T10:21:56;103430.0;;;5.7;74.0
52343;BME280;38277;51.972;4.624;2023-02-28T10:30:59;103430.0;;;5.9;73.0
52343;BME280;38277;51.972;4.624;2023-02-28T10:43:03;103420.0;;;6.3;71.5
52343;BME280;38277;51.972;4.624;2023-02-28T10:46:10;103430.0;;;6.7;69.5
52343;BME280;38277;51.972;4.624;2023-02-28T10:55:25;103400.0;;;7.4;64.0
52343;BME280;38277;51.972;4.624;2023-02-28T10:58:25;103390.0;;;7.6;63.0
52343;BME280;38277;51.972;4.624;2023-02-28T11:09:21;103400.0;;;7.3;58.0
52343;BME280;38277;51.972;4.624;2023-02-28T11:12:08;103390.0;;;7.1;55.0
52343;BME280;38277;51.972;4.624;2023-02-28T11:19:44;103400.0;;;6.9;53.5
52343;BME280;38277;51.972;4.624;2023-02-28T11:25:46;103390.0;;;7.0;52.5
52343;BME280;38277;51.972;4.624;2023-02-28T11:32:49;103390.0;;;7.9;49.5
52343;BME280;38277;51.972;4.624;2023-02-28T11:38:50;103380.0;;;8.4;47.5
52343;BME280;38277;51.972;4.624;2023-02-28T11:47:04;103370.0;;;9.4;43.0
52343;BME280;38277;51.972;4.624;2023-02-28T11:53:05;103370.0;;;9.6;41.5
52343;BME280;38277;51.972;4.624;2023-02-28T12:03:55;103360.0;;;10.0;42.0
52343;BME280;38277;51.972;4.624;2023-02-28T12:06:45;103350.0;;;9.6;42.0
52343;BME280;38277;51.972;4.624;2023-02-28T12:14:00;103340.0;;;9.9;42.5
52343;BME280;38277;51.972;4.624;2023-02-28T12:20:46;103330.0;;;12.3;39.5
52343;BME280;38277;51.972;4.624;2023-02-28T12:27:37;103310.0;;;19.0;28.0
52343;BME280;38277;51.972;4.624;2023-02-28T12:40:28;103300.0;;;25.1;19.5
52343;BME280;38277;51.972;4.624;2023-02-28T12:54:49;103270.0;;;26.0;17.0
52343;BME280;38277;51.972;4.624;2023-02-28T13:00:14;103260.0;;;26.4;15.5
52343;BME280;38277;51.972;4.624;2023-02-28T13:09:19;103250.0;;;27.7;15.0
52343;BME280;38277;51.972;4.624;2023-02-28T13:13:37;103240.0;;;27.9;14.5
52343;BME280;38277;51.972;4.624;2023-02-28T13:24:04;103230.0;;;27.7;14.5
52343;BME280;38277;51.972;4.624;2023-02-28T13:27:40;103230.0;;;28.0;15.0
52343;BME280;38277;51.972;4.624;2023-02-28T13:32:44;103230.0;;;28.6;13.5
52343;BME280;38277;51.972;4.624;2023-02-28T13:39:46;103220.0;;;28.8;14.0
52343;BME280;38277;51.972;4.624;2023-02-28T13:45:27;103220.0;;;29.1;13.5
52343;BME280;38277;51.972;4.624;2023-02-28T13:59:19;103210.0;;;29.0;13.0
52343;BME280;38277;51.972;4.624;2023-02-28T14:06:15;103200.0;;;29.2;12.5
52343;BME280;38277;51.972;4.624;2023-02-28T14:11:04;103190.0;;;29.3;12.5
52343;BME280;38277;51.972;4.624;2023-02-28T14:23:44;103190.0;;;28.6;13.0
52343;BME280;38277;51.972;4.624;2023-02-28T14:30:57;103170.0;;;28.7;13.0
52343;BME280;38277;51.972;4.624;2023-02-28T14:38:18;103180.0;;;28.3;13.0
52343;BME280;38277;51.972;4.624;2023-02-28T14:47:16;103180.0;;;27.7;13.5
52343;BME280;38277;51.972;4.624;2023-02-28T14:59:26;103170.0;;;26.8;13.0
52343;BME280;38277;51.972;4.624;2023-02-28T15:05:29;103180.0;;;24.4;14.0
52343;BME280;38277;51.972;4.624;2023-02-28T15:14:21;103180.0;;;21.4;16.5
52343;BME280;38277;51.972;4.624;2023-02-28T15:23:24;103200.0;;;17.9;19.5
52343;BME280;38277;51.972;4.624;2023-02-28T15:35:31;103200.0;;;15.4;22.0
52343;BME280;38277;51.972;4.624;2023-02-28T15:59:37;103200.0;;;11.8;28.0
52343;BME280;38277;51.972;4.624;2023-02-28T16:07:20;103210.0;;;11.1;31.5
52343;BME280;38277;51.972;4.624;2023-02-28T16:16:30;103210.0;;;10.2;35.5
52343;BME280;38277;51.972;4.624;2023-02-28T16:25:39;103220.0;;;9.7;38.0
52343;BME280;38277;51.972;4.624;2023-02-28T16:34:36;103220.0;;;9.0;40.5
52343;BME280;38277;51.972;4.624;2023-02-28T16:43:39;103230.0;;;8.3;43.0
52343;BME280;38277;51.972;4.624;2023-02-28T16:52:42;103240.0;;;7.8;44.5
52343;BME280;38277;51.972;4.624;2023-02-28T17:01:45;103260.0;;;7.5;46.0
52343;BME280;38277;51.972;4.624;2023-02-28T17:13:49;103260.0;;;7.1;47.5
52343;BME280;38277;51.972;4.624;2023-02-28T17:19:51;103260.0;;;6.7;49.5
52343;BME280;38277;51.972;4.624;2023-02-28T17:28:55;103280.0;;;6.4;50.5
52343;BME280;38277;51.972;4.624;2023-02-28T17:40:58;103290.0;;;6.1;52.0
52343;BME280;38277;51.972;4.624;2023-02-28T17:50:02;103300.0;;;5.8;52.5
52343;BME280;38277;51.972;4.624;2023-02-28T17:56:04;103320.0;;;5.6;53.0
52343;BME280;38277;51.972;4.624;2023-02-28T18:05:08;103320.0;;;5.5;54.0
52343;BME280;38277;51.972;4.624;2023-02-28T18:14:11;103330.0;;;5.3;54.5
52343;BME280;38277;51.972;4.624;2023-02-28T18:29:18;103340.0;;;5.1;55.5
52343;BME280;38277;51.972;4.624;2023-02-28T18:32:17;103340.0;;;5.0;57.0
52343;BME280;38277;51.972;4.624;2023-02-28T18:41:20;103350.0;;;4.8;57.0
52343;BME280;38277;51.972;4.624;2023-02-28T18:50:23;103350.0;;;4.6;58.5
52343;BME280;38277;51.972;4.624;2023-02-28T18:59:26;103360.0;;;4.5;59.0
52343;BME280;38277;51.972;4.624;2023-02-28T19:08:29;103360.0;;;4.4;60.0
52343;BME280;38277;51.972;4.624;2023-02-28T19:17:32;103350.0;;;4.2;60.5
52343;BME280;38277;51.972;4.624;2023-02-28T19:26:35;103360.0;;;4.1;61.0
52343;BME280;38277;51.972;4.624;2023-02-28T19:38:40;103360.0;;;3.9;61.5
52343;BME280;38277;51.972;4.624;2023-02-28T19:47:43;103370.0;;;3.8;61.5
52343;BME280;38277;51.972;4.624;2023-02-28T19:53:44;103380.0;;;3.7;62.5
52343;BME280;38277;51.972;4.624;2023-02-28T20:02:48;103370.0;;;3.6;63.0
52343;BME280;38277;51.972;4.624;2023-02-28T20:11:51;103370.0;;;3.5;63.0
52343;BME280;38277;51.972;4.624;2023-02-28T20:20:54;103380.0;;;3.5;64.0
52343;BME280;38277;51.972;4.624;2023-02-28T20:32:58;103370.0;;;3.5;64.0
52343;BME280;38277;51.972;4.624;2023-02-28T20:39:00;103370.0;;;3.4;65.0
52343;BME280;38277;51.972;4.624;2023-02-28T20:51:05;103380.0;;;3.4;65.5
52343;BME280;38277;51.972;4.624;2023-02-28T20:57:06;103390.0;;;3.3;65.5
52343;BME280;38277;51.972;4.624;2023-02-28T21:06:10;103400.0;;;3.2;65.5
52343;BME280;38277;51.972;4.624;2023-02-28T21:15:13;103390.0;;;3.2;65.5
52343;BME280;38277;51.972;4.624;2023-02-28T21:24:18;103410.0;;;3.1;66.0
52343;BME280;38277;51.972;4.624;2023-02-28T21:27:17;103410.0;;;3.0;66.0
52343;BME280;38277;51.972;4.624;2023-02-28T21:33:19;103420.0;;;3.0;66.5
52343;BME280;38277;51.972;4.624;2023-02-28T21:40:20;103430.0;;;2.9;67.0
52343;BME280;38277;51.972;4.624;2023-02-28T21:46:24;103420.0;;;2.8;67.5
52343;BME280;38277;51.972;4.624;2023-02-28T21:52:25;103420.0;;;2.8;67.5
52343;BME280;38277;51.972;4.624;2023-02-28T21:58:35;103410.0;;;2.8;68.0
52343;BME280;38277;51.972;4.624;2023-02-28T22:04:38;103410.0;;;2.8;68.0
52343;BME280;38277;51.972;4.624;2023-02-28T22:11:40;103420.0;;;2.7;68.5
52343;BME280;38277;51.972;4.624;2023-02-28T22:20:43;103410.0;;;2.7;68.5
52343;BME280;38277;51.972;4.624;2023-02-28T22:23:45;103420.0;;;2.6;68.5
52343;BME280;38277;51.972;4.624;2023-02-28T22:29:46;103410.0;;;2.6;68.5
52343;BME280;38277;51.972;4.624;2023-02-28T22:35:49;103420.0;;;2.6;68.5
52343;BME280;38277;51.972;4.624;2023-02-28T22:43:15;103430.0;;;2.5;69.0
52343;BME280;38277;51.972;4.624;2023-02-28T22:49:17;103430.0;;;2.4;69.0
52343;BME280;38277;51.972;4.624;2023-02-28T22:56:52;103430.0;;;2.3;69.0
52343;BME280;38277;51.972;4.624;2023-02-28T23:02:54;103430.0;;;2.3;69.5
52343;BME280;38277;51.972;4.624;2023-02-28T23:10:39;103420.0;;;2.3;70.0
52343;BME280;38277;51.972;4.624;2023-02-28T23:15:34;103420.0;;;2.2;70.0
52343;BME280;38277;51.972;4.624;2023-02-28T23:23:41;103420.0;;;2.2;70.5
52343;BME280;38277;51.972;4.624;2023-02-28T23:28:28;103410.0;;;2.2;70.5
52343;BME280;38277;51.972;4.624;2023-02-28T23:37:26;103430.0;;;2.1;70.5
52343;BME280;38277;51.972;4.624;2023-02-28T23:42:06;103430.0;;;2.0;71.0
52343;BME280;38277;51.972;4.624;2023-02-28T23:46:19;103430.0;;;2.0;71.0
52343;BME280;38277;51.972;4.624;2023-02-28T23:50:59;103430.0;;;2.0;71.0
52343;BME280;38277;51.972;4.624;2023-02-28T23:59:52;103430.0;;;1.9;71.5
